Tuskahoma, Oklahoma
Current Conditions -  °F | °C
As of 2:53 AM on Monday 24 Nov 2014 (Local Time) from KMLC Reporting Station
Clear Clear  
Wind Chill:   Ceiling: Unl
Heat Index:   Visibility: 10mi
Dew Point:   Wind: 5mph
Humidity: 76%   Direction: 300°WNW
Pressure: 29.83"   Gusts: NA
Location:  34.62°N, 95.28°W
Report Text: KMLC 240853Z AUTO 30004KT 10SM CLR 06/02 A2983 RMK AO2 SLP097 T00610022 52029
Loading
Personal Weather Stations






























Interactive Weather Map New forecast layout! Learn more

10-Day Weather Forecast

Advertisements
Track Severe Weather on mobile